Time;durP1;ratioP1;P1;durP2;ratioP2;P2;SDS_P1;SDS_P2;PMS_P1;PMS_P2;Temp;Humidity;BMP_temperature;BMP_pressure;BME280_temperature;BME280_humidity;BME280_pressure;Samples;Min_cycle;Max_cycle;Signal;HPM_P1;HPM_P2
2023/11/03 00:00:16;;;;;;;;;;;10.40;81.00;;;;;;5096637;28;20023;-69
2023/11/03 00:02:49;;;;;;;;;;;10.40;80.60;;;;;;5096133;27;19956;-69
2023/11/03 00:05:38;;;;;;;;;;;10.30;80.50;;;;;;5111681;27;22267;-69
2023/11/03 00:08:17;;;;;;;;;;;10.40;80.50;;;;;;5097525;28;20018;-68
2023/11/03 00:10:51;;;;;;;;;;;10.30;80.60;;;;;;5094585;27;19935;-69
2023/11/03 00:13:24;;;;;;;;;;;10.20;80.50;;;;;;5092619;28;19939;-69
2023/11/03 00:15:58;;;;;;;;;;;10.20;80.60;;;;;;5093240;28;20442;-68
2023/11/03 00:18:32;;;;;;;;;;;10.20;80.60;;;;;;5096044;28;19927;-69
2023/11/03 00:21:05;;;;;;;;;;;10.20;80.90;;;;;;5098160;28;20056;-68
2023/11/03 00:23:38;;;;;;;;;;;10.20;80.90;;;;;;5091948;28;20497;-68
2023/11/03 00:26:11;;;;;;;;;;;10.10;80.70;;;;;;5093304;28;20455;-68
2023/11/03 00:28:48;;;;;;;;;;;10.10;81.00;;;;;;5096411;28;19945;-68
2023/11/03 00:31:23;;;;;;;;;;;10.00;81.00;;;;;;5095840;28;20016;-68
2023/11/03 00:33:56;;;;;;;;;;;10.00;81.10;;;;;;5097325;28;19927;-68
2023/11/03 00:36:30;;;;;;;;;;;9.90;81.40;;;;;;5095724;28;20340;-69
2023/11/03 00:39:04;;;;;;;;;;;9.90;81.30;;;;;;5092169;28;19959;-65
2023/11/03 00:41:37;;;;;;;;;;;9.80;81.50;;;;;;5094245;28;19948;-65
2023/11/03 00:44:11;;;;;;;;;;;9.80;81.60;;;;;;5098778;28;19932;-66
2023/11/03 00:46:46;;;;;;;;;;;9.70;81.90;;;;;;5096295;28;19951;-66
2023/11/03 00:49:19;;;;;;;;;;;9.70;81.90;;;;;;5094472;28;19924;-65
2023/11/03 00:51:46;;;;;;;;;;;9.70;82.10;;;;;;5091985;28;19935;-65
2023/11/03 00:54:19;;;;;;;;;;;9.70;82.20;;;;;;5096828;28;19923;-67
2023/11/03 00:56:52;;;;;;;;;;;9.70;82.00;;;;;;5097136;28;19932;-67
2023/11/03 00:59:25;;;;;;;;;;;9.60;82.40;;;;;;5098331;28;20022;-67
2023/11/03 01:02:02;;;;;;;;;;;9.60;82.20;;;;;;5103392;27;19935;-65
2023/11/03 01:04:37;;;;;;;;;;;9.70;82.20;;;;;;5095345;28;19927;-67
2023/11/03 01:07:11;;;;;;;;;;;9.70;82.00;;;;;;5098919;28;19928;-67
2023/11/03 01:09:45;;;;;;;;;;;9.70;82.10;;;;;;5097618;28;19962;-66
2023/11/03 01:12:18;;;;;;;;;;;9.70;82.00;;;;;;5097874;28;19931;-65
2023/11/03 01:14:54;;;;;;;;;;;9.70;81.60;;;;;;5092135;28;19939;-65
2023/11/03 01:17:28;;;;;;;;;;;9.70;81.60;;;;;;5098325;28;20014;-66
2023/11/03 01:20:02;;;;;;;;;;;9.80;81.50;;;;;;5091264;28;19931;-66
2023/11/03 01:22:35;;;;;;;;;;;9.80;81.30;;;;;;5098420;28;19928;-65
2023/11/03 01:25:11;;;;;;;;;;;9.70;81.10;;;;;;5095796;27;19929;-65
2023/11/03 01:27:45;;;;;;;;;;;9.80;81.10;;;;;;5100247;27;19971;-65
2023/11/03 01:30:20;;;;;;;;;;;9.80;81.00;;;;;;5091353;28;20055;-66
2023/11/03 01:32:54;;;;;;;;;;;9.80;81.00;;;;;;5080441;28;20022;-65
2023/11/03 01:35:28;;;;;;;;;;;9.80;80.90;;;;;;5097235;28;19928;-66
2023/11/03 01:38:04;;;;;;;;;;;9.80;81.00;;;;;;5095726;28;19932;-65
2023/11/03 01:40:44;;;;;;;;;;;9.80;80.90;;;;;;5112311;27;19947;-65
2023/11/03 01:43:17;;;;;;;;;;;9.80;80.70;;;;;;5098015;28;19928;-65
2023/11/03 01:45:50;;;;;;;;;;;9.80;80.60;;;;;;5111416;27;19950;-67
2023/11/03 01:48:26;;;;;;;;;;;9.80;80.70;;;;;;5095833;28;19928;-70
2023/11/03 01:51:01;;;;;;;;;;;9.80;80.80;;;;;;5084368;28;19935;-69
2023/11/03 01:53:34;;;;;;;;;;;9.70;80.40;;;;;;5097900;28;19928;-69
2023/11/03 01:56:07;;;;;;;;;;;9.80;80.70;;;;;;5095282;28;19993;-70
2023/11/03 01:58:34;;;;;;;;;;;9.80;80.50;;;;;;5088878;28;20493;-71
2023/11/03 02:01:07;;;;;;;;;;;9.80;80.70;;;;;;5096954;28;19989;-70
2023/11/03 02:03:43;;;;;;;;;;;9.80;80.60;;;;;;5093713;28;19928;-70
2023/11/03 02:06:16;;;;;;;;;;;9.80;80.50;;;;;;5092195;28;19931;-71
2023/11/03 02:08:50;;;;;;;;;;;9.70;80.80;;;;;;5096613;27;19994;-71
2023/11/03 02:11:24;;;;;;;;;;;9.70;80.60;;;;;;5089242;28;19993;-69
2023/11/03 02:13:57;;;;;;;;;;;9.70;80.50;;;;;;5087594;28;19928;-71
2023/11/03 02:16:30;;;;;;;;;;;9.70;80.40;;;;;;5093311;28;19928;-69
2023/11/03 02:19:05;;;;;;;;;;;9.70;80.50;;;;;;5094726;28;20381;-72
2023/11/03 02:21:38;;;;;;;;;;;9.70;80.50;;;;;;5089998;28;19932;-71
2023/11/03 02:24:13;;;;;;;;;;;9.80;80.30;;;;;;5093396;28;19928;-68
2023/11/03 02:26:47;;;;;;;;;;;9.70;80.20;;;;;;5093998;28;19985;-71
2023/11/03 02:29:20;;;;;;;;;;;9.80;80.30;;;;;;5096921;27;19943;-69
2023/11/03 02:31:53;;;;;;;;;;;9.80;80.50;;;;;;5094536;28;19950;-70
2023/11/03 02:34:26;;;;;;;;;;;9.80;80.40;;;;;;5096672;27;19938;-70
2023/11/03 02:36:59;;;;;;;;;;;9.80;80.50;;;;;;5092022;28;19942;-70
2023/11/03 02:39:36;;;;;;;;;;;9.80;80.60;;;;;;5092313;28;20432;-69
2023/11/03 02:42:09;;;;;;;;;;;9.70;80.60;;;;;;5088442;28;19975;-71
2023/11/03 02:44:42;;;;;;;;;;;9.80;80.70;;;;;;5094347;28;19932;-70
2023/11/03 02:47:15;;;;;;;;;;;9.80;80.80;;;;;;5094256;28;19928;-70
2023/11/03 02:49:48;;;;;;;;;;;9.70;80.70;;;;;;5094752;28;19977;-70
2023/11/03 02:52:21;;;;;;;;;;;9.80;80.80;;;;;;5094722;28;19928;-69
2023/11/03 02:54:55;;;;;;;;;;;9.80;80.70;;;;;;5096702;28;19934;-69
2023/11/03 02:57:29;;;;;;;;;;;9.80;80.70;;;;;;5095494;28;19924;-61
2023/11/03 03:00:02;;;;;;;;;;;9.80;80.80;;;;;;5088034;27;19932;-61
2023/11/03 03:02:36;;;;;;;;;;;9.80;80.60;;;;;;5096006;28;20010;-61
2023/11/03 03:05:10;;;;;;;;;;;9.80;80.70;;;;;;5090707;28;19928;-62
2023/11/03 03:07:45;;;;;;;;;;;9.80;80.70;;;;;;5098546;28;19924;-63
2023/11/03 03:10:19;;;;;;;;;;;9.80;80.80;;;;;;5094445;28;19939;-61
2023/11/03 03:12:53;;;;;;;;;;;9.90;80.60;;;;;;5078625;28;19931;-61
2023/11/03 03:15:26;;;;;;;;;;;9.80;80.60;;;;;;5088868;28;19932;-60
2023/11/03 03:17:59;;;;;;;;;;;9.80;80.90;;;;;;5090837;28;21096;-61
2023/11/03 03:20:32;;;;;;;;;;;9.80;80.50;;;;;;5092878;28;19935;-61
2023/11/03 03:23:05;;;;;;;;;;;9.80;80.40;;;;;;5094054;28;19923;-61
2023/11/03 03:25:40;;;;;;;;;;;9.80;80.40;;;;;;5089666;28;20005;-60
2023/11/03 03:28:13;;;;;;;;;;;9.80;80.40;;;;;;5090770;28;20362;-60
2023/11/03 03:30:46;;;;;;;;;;;9.80;80.50;;;;;;5088696;28;20015;-61
2023/11/03 03:33:19;;;;;;;;;;;9.80;80.20;;;;;;5092545;28;19939;-61
2023/11/03 03:35:52;;;;;;;;;;;9.80;80.40;;;;;;5095036;28;19933;-61
2023/11/03 03:38:26;;;;;;;;;;;9.80;80.40;;;;;;5081504;28;20387;-61
2023/11/03 03:41:00;;;;;;;;;;;9.80;80.40;;;;;;5085738;28;19978;-61
2023/11/03 03:43:35;;;;;;;;;;;9.80;80.60;;;;;;5085229;28;19931;-61
2023/11/03 03:46:03;;;;;;;;;;;9.90;80.30;;;;;;5091333;28;19932;-61
2023/11/03 03:48:36;;;;;;;;;;;9.80;80.60;;;;;;5096989;28;19928;-62
2023/11/03 03:51:10;;;;;;;;;;;9.90;80.50;;;;;;5086986;28;20129;-61
2023/11/03 03:53:43;;;;;;;;;;;9.80;80.20;;;;;;5092441;28;19924;-61
2023/11/03 03:56:17;;;;;;;;;;;9.80;80.30;;;;;;5089422;28;19963;-61
2023/11/03 03:58:51;;;;;;;;;;;9.80;80.20;;;;;;5090132;28;19927;-61
2023/11/03 04:01:24;;;;;;;;;;;9.80;80.40;;;;;;5089813;28;20027;-61
2023/11/03 04:03:57;;;;;;;;;;;9.80;80.30;;;;;;5094552;28;19934;-61
2023/11/03 04:06:30;;;;;;;;;;;9.80;80.30;;;;;;5097456;28;19932;-61
2023/11/03 04:09:03;;;;;;;;;;;9.80;80.10;;;;;;5096576;28;19927;-69
2023/11/03 04:11:37;;;;;;;;;;;9.80;80.20;;;;;;5091651;28;19935;-69
2023/11/03 04:14:11;;;;;;;;;;;9.80;80.30;;;;;;5087853;28;19932;-68
2023/11/03 04:16:44;;;;;;;;;;;9.80;80.30;;;;;;5089552;28;19927;-68
2023/11/03 04:19:17;;;;;;;;;;;9.90;80.20;;;;;;5095629;28;19959;-68
2023/11/03 04:21:50;;;;;;;;;;;9.80;80.30;;;;;;5086554;28;20397;-68
2023/11/03 04:24:23;;;;;;;;;;;9.90;80.20;;;;;;5092741;28;19928;-69
2023/11/03 04:26:57;;;;;;;;;;;9.90;80.10;;;;;;5088538;28;19924;-68
2023/11/03 04:29:31;;;;;;;;;;;9.90;80.30;;;;;;5090221;28;19954;-69
2023/11/03 04:31:58;;;;;;;;;;;9.80;80.30;;;;;;5094948;28;19928;-69
2023/11/03 04:34:31;;;;;;;;;;;9.80;80.00;;;;;;5092658;28;20360;-68
2023/11/03 04:37:04;;;;;;;;;;;9.80;80.40;;;;;;5091387;28;20318;-68
2023/11/03 04:39:37;;;;;;;;;;;9.80;80.10;;;;;;5099445;28;20399;-70
2023/11/03 04:42:11;;;;;;;;;;;9.80;80.30;;;;;;5094111;28;20646;-69
2023/11/03 04:44:45;;;;;;;;;;;9.80;80.30;;;;;;5100956;28;20459;-68
2023/11/03 04:47:18;;;;;;;;;;;9.80;80.30;;;;;;5099510;28;19985;-68
2023/11/03 04:49:52;;;;;;;;;;;9.80;80.10;;;;;;5096476;28;19928;-68
2023/11/03 04:52:25;;;;;;;;;;;9.80;80.30;;;;;;5098998;28;19924;-69
2023/11/03 04:55:15;;;;;;;;;;;9.70;80.10;;;;;;5094064;28;20273;-67
2023/11/03 04:57:49;;;;;;;;;;;9.80;80.20;;;;;;5096361;28;20013;-70
2023/11/03 05:00:23;;;;;;;;;;;9.80;80.20;;;;;;5089035;27;20015;-69
2023/11/03 05:02:58;;;;;;;;;;;9.70;80.10;;;;;;5087778;28;20260;-68
2023/11/03 05:05:32;;;;;;;;;;;9.70;79.90;;;;;;5088012;28;19924;-70
2023/11/03 05:08:05;;;;;;;;;;;9.70;80.00;;;;;;5097438;28;19924;-68
2023/11/03 05:10:38;;;;;;;;;;;9.70;80.10;;;;;;5096036;28;19955;-68
2023/11/03 05:13:15;;;;;;;;;;;9.70;80.30;;;;;;5094850;28;19934;-68
2023/11/03 05:15:49;;;;;;;;;;;9.70;80.20;;;;;;5091261;28;19932;-69
2023/11/03 05:18:22;;;;;;;;;;;9.70;80.20;;;;;;5099860;28;20696;-70
2023/11/03 05:20:55;;;;;;;;;;;9.70;80.40;;;;;;5089717;28;20290;-68
2023/11/03 05:23:22;;;;;;;;;;;9.70;80.40;;;;;;5091543;27;20055;-67
2023/11/03 05:25:55;;;;;;;;;;;9.70;80.40;;;;;;5096926;27;20022;-69
2023/11/03 05:28:30;;;;;;;;;;;9.70;80.50;;;;;;5091110;28;19935;-67
2023/11/03 05:31:03;;;;;;;;;;;9.70;80.50;;;;;;5091748;28;19924;-68
2023/11/03 05:33:37;;;;;;;;;;;9.70;80.70;;;;;;5106107;27;19928;-68
2023/11/03 05:36:11;;;;;;;;;;;9.70;80.70;;;;;;5093737;28;19928;-69
2023/11/03 05:38:44;;;;;;;;;;;9.70;80.60;;;;;;5094009;28;20012;-68
2023/11/03 05:41:17;;;;;;;;;;;9.60;80.70;;;;;;5090380;28;19924;-69
2023/11/03 05:43:51;;;;;;;;;;;9.60;80.80;;;;;;5092722;28;19936;-68
2023/11/03 05:46:25;;;;;;;;;;;9.60;81.00;;;;;;5092704;28;19935;-68
2023/11/03 05:48:59;;;;;;;;;;;9.60;80.90;;;;;;5102194;28;19924;-68
2023/11/03 05:51:33;;;;;;;;;;;9.60;80.90;;;;;;5096073;28;19924;-69
2023/11/03 05:54:07;;;;;;;;;;;9.60;80.80;;;;;;5094388;28;19982;-68
2023/11/03 05:56:40;;;;;;;;;;;9.60;81.00;;;;;;5099226;28;19977;-69
2023/11/03 05:59:08;;;;;;;;;;;9.70;81.00;;;;;;5094700;28;19942;-69
2023/11/03 06:01:43;;;;;;;;;;;9.70;80.90;;;;;;5089075;28;19924;-69
2023/11/03 06:04:16;;;;;;;;;;;9.70;81.10;;;;;;5099660;27;20042;-69
2023/11/03 06:06:43;;;;;;;;;;;9.60;81.00;;;;;;5093904;28;19964;-68
2023/11/03 06:09:17;;;;;;;;;;;9.60;81.00;;;;;;5093817;28;19927;-69
2023/11/03 06:11:51;;;;;;;;;;;9.60;81.10;;;;;;5093834;28;19932;-69
2023/11/03 06:14:26;;;;;;;;;;;9.60;81.10;;;;;;5095029;28;19923;-69
2023/11/03 06:16:59;;;;;;;;;;;9.70;81.20;;;;;;5090365;28;20046;-69
2023/11/03 06:19:33;;;;;;;;;;;9.60;81.20;;;;;;5095207;28;19931;-69
2023/11/03 06:22:07;;;;;;;;;;;9.60;81.30;;;;;;5088256;28;19924;-69
2023/11/03 06:24:41;;;;;;;;;;;9.60;81.20;;;;;;5093985;28;19932;-69
2023/11/03 06:27:14;;;;;;;;;;;9.60;81.40;;;;;;5095232;28;19923;-72
2023/11/03 06:29:48;;;;;;;;;;;9.60;81.40;;;;;;5089055;28;19923;-71
2023/11/03 06:32:22;;;;;;;;;;;9.60;81.50;;;;;;5092488;28;19953;-72
2023/11/03 06:34:55;;;;;;;;;;;9.70;81.40;;;;;;5093878;28;20082;-72
2023/11/03 06:37:28;;;;;;;;;;;9.60;81.50;;;;;;5095746;28;19971;-72
2023/11/03 06:40:01;;;;;;;;;;;9.60;81.40;;;;;;5091497;28;19990;-71
2023/11/03 06:42:34;;;;;;;;;;;9.60;81.50;;;;;;5094125;28;19950;-71
2023/11/03 06:45:09;;;;;;;;;;;9.70;81.50;;;;;;5094660;28;19928;-71
2023/11/03 06:47:42;;;;;;;;;;;9.60;81.50;;;;;;5092832;28;19932;-69
2023/11/03 06:50:15;;;;;;;;;;;9.60;81.70;;;;;;5078532;28;19927;-71
2023/11/03 06:52:49;;;;;;;;;;;9.60;81.70;;;;;;5095806;28;19924;-71
2023/11/03 06:55:22;;;;;;;;;;;9.70;81.60;;;;;;5091824;28;20249;-71
2023/11/03 06:57:55;;;;;;;;;;;9.60;81.60;;;;;;5090937;28;19934;-72
2023/11/03 07:00:30;;;;;;;;;;;9.70;81.80;;;;;;5088767;28;20022;-71
2023/11/03 07:03:03;;;;;;;;;;;9.70;81.90;;;;;;5087019;28;19939;-71
2023/11/03 07:05:38;;;;;;;;;;;9.70;81.70;;;;;;5094477;28;19969;-72
2023/11/03 07:08:12;;;;;;;;;;;9.70;81.80;;;;;;5093679;28;19980;-71
2023/11/03 07:10:45;;;;;;;;;;;9.70;81.80;;;;;;5092593;28;19932;-72
2023/11/03 07:13:19;;;;;;;;;;;9.70;81.60;;;;;;5095930;28;19932;-71
2023/11/03 07:15:55;;;;;;;;;;;9.70;81.50;;;;;;5091562;28;20559;-71
2023/11/03 07:18:28;;;;;;;;;;;9.70;81.50;;;;;;5095640;28;19928;-71
2023/11/03 07:21:02;;;;;;;;;;;9.70;81.50;;;;;;5091669;28;20387;-72
2023/11/03 07:23:35;;;;;;;;;;;9.70;81.60;;;;;;5094091;28;19923;-71
2023/11/03 07:26:12;;;;;;;;;;;9.80;81.50;;;;;;5090083;28;20362;-70
2023/11/03 07:28:45;;;;;;;;;;;9.80;81.50;;;;;;5090128;28;20395;-70
2023/11/03 07:31:20;;;;;;;;;;;9.70;81.40;;;;;;5090036;28;19928;-71
2023/11/03 07:33:55;;;;;;;;;;;9.80;81.50;;;;;;5095586;28;19924;-71
2023/11/03 07:36:29;;;;;;;;;;;9.80;81.40;;;;;;5092835;28;20417;-70
2023/11/03 07:39:05;;;;;;;;;;;9.80;81.40;;;;;;5088458;28;19943;-61
2023/11/03 07:41:38;;;;;;;;;;;9.80;81.40;;;;;;5091802;28;20364;-60
2023/11/03 07:44:12;;;;;;;;;;;9.90;81.30;;;;;;5093064;28;19935;-61
2023/11/03 07:46:47;;;;;;;;;;;9.80;81.10;;;;;;5090862;28;20389;-61
2023/11/03 07:49:20;;;;;;;;;;;9.80;81.00;;;;;;5089457;28;19928;-70
2023/11/03 07:51:53;;;;;;;;;;;9.90;80.80;;;;;;5094453;28;19928;-67
2023/11/03 07:54:26;;;;;;;;;;;9.90;80.80;;;;;;5096422;28;19935;-68
2023/11/03 07:57:00;;;;;;;;;;;9.90;80.90;;;;;;5098947;28;20279;-69
2023/11/03 07:59:35;;;;;;;;;;;9.90;80.70;;;;;;5095573;28;19932;-69
2023/11/03 08:02:10;;;;;;;;;;;9.90;80.60;;;;;;5091428;28;19951;-69
2023/11/03 08:04:43;;;;;;;;;;;9.90;80.60;;;;;;5089399;28;19931;-67
2023/11/03 08:07:16;;;;;;;;;;;9.90;80.50;;;;;;5096011;28;19928;-68
2023/11/03 08:09:49;;;;;;;;;;;9.90;80.50;;;;;;5092029;28;19967;-69
2023/11/03 08:12:22;;;;;;;;;;;9.90;80.20;;;;;;5089688;28;20311;-69
2023/11/03 08:14:56;;;;;;;;;;;9.80;80.20;;;;;;5095588;27;19982;-67
2023/11/03 08:17:31;;;;;;;;;;;9.90;80.40;;;;;;5098667;28;20027;-69
2023/11/03 08:20:05;;;;;;;;;;;9.90;80.40;;;;;;5096229;28;20852;-69
2023/11/03 08:22:38;;;;;;;;;;;9.90;80.30;;;;;;5099272;27;19928;-67
2023/11/03 08:25:12;;;;;;;;;;;9.90;80.30;;;;;;5097673;28;19973;-69
2023/11/03 08:27:45;;;;;;;;;;;9.90;80.50;;;;;;5102112;28;19934;-69
2023/11/03 08:30:19;;;;;;;;;;;9.90;80.50;;;;;;5097498;28;20012;-69
2023/11/03 08:32:54;;;;;;;;;;;9.90;80.60;;;;;;5098679;28;19934;-69
2023/11/03 08:35:27;;;;;;;;;;;9.90;80.60;;;;;;5096775;28;19951;-69
2023/11/03 08:38:00;;;;;;;;;;;9.90;80.60;;;;;;5100523;27;19924;-69
2023/11/03 08:40:34;;;;;;;;;;;9.90;80.50;;;;;;5096009;28;19928;-68
2023/11/03 08:43:07;;;;;;;;;;;9.90;80.50;;;;;;5097896;28;19985;-68
2023/11/03 08:45:40;;;;;;;;;;;9.90;80.60;;;;;;5099190;28;19939;-69
2023/11/03 08:48:15;;;;;;;;;;;9.90;80.70;;;;;;5091979;28;19932;-69
2023/11/03 08:50:49;;;;;;;;;;;9.90;80.70;;;;;;5090794;27;19928;-69
2023/11/03 08:53:25;;;;;;;;;;;9.90;80.80;;;;;;5098983;28;19932;-69
2023/11/03 08:55:58;;;;;;;;;;;9.90;80.90;;;;;;5092000;28;19971;-69
2023/11/03 08:58:31;;;;;;;;;;;10.00;80.90;;;;;;5096471;27;20434;-69
2023/11/03 09:01:06;;;;;;;;;;;10.00;81.00;;;;;;5093744;28;19934;-69
2023/11/03 09:03:41;;;;;;;;;;;10.00;81.10;;;;;;5094487;28;20023;-69
2023/11/03 09:06:15;;;;;;;;;;;9.90;81.10;;;;;;5097705;28;19944;-70
2023/11/03 09:08:48;;;;;;;;;;;10.00;81.00;;;;;;5096913;28;20383;-70
2023/11/03 09:11:21;;;;;;;;;;;10.00;81.00;;;;;;5093400;27;19956;-69
2023/11/03 09:13:55;;;;;;;;;;;10.10;80.90;;;;;;5091669;28;19924;-71
2023/11/03 09:16:28;;;;;;;;;;;10.10;80.70;;;;;;5094923;28;19930;-70
2023/11/03 09:19:03;;;;;;;;;;;10.10;80.80;;;;;;5096465;28;19969;-69
2023/11/03 09:21:38;;;;;;;;;;;10.10;80.60;;;;;;5099859;28;20014;-70
2023/11/03 09:24:11;;;;;;;;;;;10.10;80.40;;;;;;5095487;28;20014;-70
2023/11/03 09:26:44;;;;;;;;;;;10.20;80.50;;;;;;5095725;28;19928;-71
2023/11/03 09:29:18;;;;;;;;;;;10.20;80.50;;;;;;5094068;28;19988;-69
2023/11/03 09:31:53;;;;;;;;;;;10.20;80.50;;;;;;5094905;28;20367;-69
2023/11/03 09:34:28;;;;;;;;;;;10.30;80.40;;;;;;5095834;28;20387;-69
2023/11/03 09:37:03;;;;;;;;;;;10.30;80.50;;;;;;5095650;28;19946;-70
2023/11/03 09:39:39;;;;;;;;;;;10.40;80.50;;;;;;5099110;28;19977;-69
2023/11/03 09:42:12;;;;;;;;;;;10.40;80.20;;;;;;5087816;28;19971;-69
2023/11/03 09:44:39;;;;;;;;;;;10.40;80.30;;;;;;5098150;28;19973;-70
2023/11/03 09:47:15;;;;;;;;;;;10.40;80.20;;;;;;5094837;28;20367;-69
2023/11/03 09:49:50;;;;;;;;;;;10.50;80.10;;;;;;5093226;28;20026;-70
2023/11/03 09:52:24;;;;;;;;;;;10.60;80.10;;;;;;5093313;28;19970;-70
2023/11/03 09:54:57;;;;;;;;;;;10.60;80.00;;;;;;5094538;28;19943;-70
2023/11/03 09:57:30;;;;;;;;;;;10.50;80.20;;;;;;5094698;28;20470;-70
2023/11/03 10:00:05;;;;;;;;;;;10.50;80.20;;;;;;5086544;28;19933;-69
2023/11/03 10:02:39;;;;;;;;;;;10.50;80.20;;;;;;5095188;28;19932;-70
2023/11/03 10:05:16;;;;;;;;;;;10.40;80.40;;;;;;5093063;28;20402;-69
2023/11/03 10:07:54;;;;;;;;;;;10.50;80.20;;;;;;5094734;28;20298;-67
2023/11/03 10:10:28;;;;;;;;;;;10.50;80.30;;;;;;5097543;28;19932;-68
2023/11/03 10:13:04;;;;;;;;;;;10.50;80.30;;;;;;5097627;28;20614;-66
2023/11/03 10:15:38;;;;;;;;;;;10.50;80.10;;;;;;5095734;28;19924;-67
2023/11/03 10:18:05;;;;;;;;;;;10.50;80.10;;;;;;5094609;28;19931;-67
2023/11/03 10:20:41;;;;;;;;;;;10.50;80.10;;;;;;5096287;28;20454;-67
2023/11/03 10:23:14;;;;;;;;;;;10.40;80.20;;;;;;5085165;28;19932;-67
2023/11/03 10:25:48;;;;;;;;;;;10.40;80.20;;;;;;5089142;28;19927;-68
2023/11/03 10:28:24;;;;;;;;;;;10.50;80.10;;;;;;5092735;28;20018;-67
2023/11/03 10:30:58;;;;;;;;;;;10.50;80.00;;;;;;5092374;28;19969;-67
2023/11/03 10:33:31;;;;;;;;;;;10.50;80.00;;;;;;5091492;28;19932;-67
2023/11/03 10:36:08;;;;;;;;;;;10.60;80.00;;;;;;5089965;28;19928;-68
2023/11/03 10:38:41;;;;;;;;;;;10.60;80.00;;;;;;5090614;28;20268;-68
2023/11/03 10:41:16;;;;;;;;;;;10.70;79.90;;;;;;5095679;28;19995;-67
2023/11/03 10:43:56;;;;;;;;;;;10.70;79.80;;;;;;5093736;28;19931;-67
2023/11/03 10:46:35;;;;;;;;;;;10.70;79.80;;;;;;5096458;28;19931;-68
2023/11/03 10:49:12;;;;;;;;;;;10.70;79.90;;;;;;5092431;28;19927;-68
2023/11/03 10:52:00;;;;;;;;;;;10.70;79.70;;;;;;5094045;28;20019;-67
2023/11/03 10:54:40;;;;;;;;;;;10.70;79.80;;;;;;5096463;28;19935;-67
2023/11/03 10:57:15;;;;;;;;;;;10.70;80.00;;;;;;5097239;28;19954;-67
2023/11/03 10:59:51;;;;;;;;;;;10.70;80.10;;;;;;5093235;28;19928;-67
2023/11/03 11:02:29;;;;;;;;;;;10.70;80.00;;;;;;5095403;28;19932;-67
2023/11/03 11:05:05;;;;;;;;;;;10.70;80.10;;;;;;5089172;28;20025;-68
2023/11/03 11:07:41;;;;;;;;;;;10.70;80.10;;;;;;5097808;28;19955;-68
2023/11/03 11:10:15;;;;;;;;;;;10.70;80.00;;;;;;5093217;28;19932;-66
2023/11/03 11:12:49;;;;;;;;;;;10.70;80.10;;;;;;5107778;27;19928;-65
2023/11/03 11:15:23;;;;;;;;;;;10.70;80.10;;;;;;5093415;28;20282;-66
2023/11/03 11:18:03;;;;;;;;;;;10.70;80.00;;;;;;5086830;28;20298;-61
2023/11/03 11:20:37;;;;;;;;;;;10.70;80.00;;;;;;5094049;28;19978;-61
2023/11/03 11:23:12;;;;;;;;;;;10.70;79.80;;;;;;5098301;28;20020;-60
2023/11/03 11:25:47;;;;;;;;;;;10.70;79.70;;;;;;5090191;28;19927;-60
2023/11/03 11:28:40;;;;;;;;;;;10.70;79.60;;;;;;5098586;28;19966;-62
2023/11/03 11:31:33;;;;;;;;;;;10.60;79.50;;;;;;5099138;28;19935;-61
2023/11/03 11:34:07;;;;;;;;;;;10.60;79.90;;;;;;5089736;28;19939;-62
2023/11/03 11:36:41;;;;;;;;;;;10.60;80.00;;;;;;5091069;28;19932;-60
2023/11/03 11:39:17;;;;;;;;;;;10.60;79.90;;;;;;5095758;28;19928;-61
2023/11/03 11:41:53;;;;;;;;;;;10.60;79.80;;;;;;5094182;28;19930;-61
2023/11/03 11:44:30;;;;;;;;;;;10.60;79.90;;;;;;5097828;28;19931;-60
2023/11/03 11:47:04;;;;;;;;;;;10.60;80.00;;;;;;5086136;28;20001;-60
2023/11/03 11:49:39;;;;;;;;;;;10.60;80.10;;;;;;5094292;28;19925;-61
2023/11/03 11:52:14;;;;;;;;;;;10.60;80.20;;;;;;5101174;28;19930;-62
2023/11/03 11:54:43;;;;;;;;;;;10.60;80.10;;;;;;5098014;27;19934;-60
2023/11/03 11:57:16;;;;;;;;;;;10.50;80.20;;;;;;5097462;28;20375;-61
2023/11/03 11:59:50;;;;;;;;;;;10.60;80.40;;;;;;5097483;27;19924;-62
2023/11/03 12:02:18;;;;;;;;;;;10.60;80.50;;;;;;5095382;28;19930;-61
2023/11/03 12:04:52;;;;;;;;;;;10.60;80.70;;;;;;5090184;28;20310;-62
2023/11/03 12:07:26;;;;;;;;;;;10.60;80.80;;;;;;5102086;27;20021;-61
2023/11/03 12:10:01;;;;;;;;;;;10.60;80.70;;;;;;5096016;28;20391;-61
2023/11/03 12:12:34;;;;;;;;;;;10.60;80.80;;;;;;5099262;28;19935;-60
2023/11/03 12:15:08;;;;;;;;;;;10.60;80.80;;;;;;5090847;28;20383;-61
2023/11/03 12:17:40;;;;;;;;;;;10.70;80.70;;;;;;5093057;28;20000;-60
2023/11/03 12:20:14;;;;;;;;;;;10.70;80.60;;;;;;5095198;28;20324;-62
2023/11/03 12:22:47;;;;;;;;;;;10.80;80.40;;;;;;5097548;27;20406;-60
2023/11/03 12:25:22;;;;;;;;;;;10.80;80.30;;;;;;5094309;27;19923;-63
2023/11/03 12:27:58;;;;;;;;;;;10.90;80.20;;;;;;5098738;28;19981;-72
2023/11/03 12:30:32;;;;;;;;;;;10.90;80.10;;;;;;5084075;28;19928;-73
2023/11/03 12:33:06;;;;;;;;;;;11.00;80.10;;;;;;5092689;27;20394;-71
2023/11/03 12:35:40;;;;;;;;;;;11.00;80.10;;;;;;5095101;28;20355;-72
2023/11/03 12:38:16;;;;;;;;;;;11.00;79.90;;;;;;5096907;28;20390;-72
2023/11/03 12:40:51;;;;;;;;;;;11.00;80.10;;;;;;5097822;28;19928;-72
2023/11/03 12:43:31;;;;;;;;;;;11.00;80.10;;;;;;5097739;28;19964;-71
2023/11/03 12:46:05;;;;;;;;;;;11.00;80.20;;;;;;5092603;28;19927;-72
2023/11/03 12:48:39;;;;;;;;;;;11.10;80.20;;;;;;5096303;28;19955;-71
2023/11/03 12:51:12;;;;;;;;;;;11.10;80.20;;;;;;5092857;28;19969;-72
2023/11/03 12:53:46;;;;;;;;;;;11.10;80.20;;;;;;5100824;28;19924;-71
2023/11/03 12:56:21;;;;;;;;;;;11.20;80.20;;;;;;5094303;28;19931;-72
2023/11/03 12:58:56;;;;;;;;;;;11.30;80.10;;;;;;5091138;28;19932;-71
2023/11/03 13:01:29;;;;;;;;;;;11.30;80.00;;;;;;5108610;27;19923;-72
2023/11/03 13:04:04;;;;;;;;;;;11.40;79.90;;;;;;5095746;27;19932;-72
2023/11/03 13:06:38;;;;;;;;;;;11.40;79.70;;;;;;5096636;28;19928;-72
2023/11/03 13:09:15;;;;;;;;;;;11.40;79.60;;;;;;5094090;28;19976;-72
2023/11/03 13:11:50;;;;;;;;;;;11.50;79.40;;;;;;5091500;28;20012;-71
2023/11/03 13:14:24;;;;;;;;;;;11.50;79.20;;;;;;5094380;28;19931;-72
2023/11/03 13:16:56;;;;;;;;;;;11.50;79.10;;;;;;5096725;28;19931;-71
2023/11/03 13:19:32;;;;;;;;;;;11.60;78.80;;;;;;5098681;28;19978;-71
2023/11/03 13:22:06;;;;;;;;;;;11.60;78.70;;;;;;5091299;28;19931;-72
2023/11/03 13:24:43;;;;;;;;;;;11.60;78.40;;;;;;5099954;28;19928;-71
2023/11/03 13:27:18;;;;;;;;;;;11.50;77.50;;;;;;5094908;28;19973;-73
2023/11/03 13:29:46;;;;;;;;;;;11.50;77.50;;;;;;5091620;28;19986;-72
2023/11/03 13:32:19;;;;;;;;;;;11.50;77.00;;;;;;5094179;28;19928;-71
2023/11/03 13:34:52;;;;;;;;;;;11.50;77.00;;;;;;5095929;28;20560;-70
2023/11/03 13:37:24;;;;;;;;;;;11.50;76.90;;;;;;5098461;28;19938;-61
2023/11/03 13:39:57;;;;;;;;;;;11.50;77.10;;;;;;5096151;28;19931;-61
2023/11/03 13:42:33;;;;;;;;;;;11.50;77.00;;;;;;5095526;28;19973;-62
2023/11/03 13:45:07;;;;;;;;;;;11.50;76.70;;;;;;5094440;28;19946;-60
2023/11/03 13:47:41;;;;;;;;;;;11.50;77.00;;;;;;5094587;28;19927;-60
2023/11/03 13:50:14;;;;;;;;;;;11.50;76.40;;;;;;5094019;28;19932;-61
2023/11/03 13:52:46;;;;;;;;;;;11.50;76.80;;;;;;5091946;28;19939;-61
2023/11/03 13:55:20;;;;;;;;;;;11.50;76.80;;;;;;5092488;28;19928;-61
2023/11/03 13:57:57;;;;;;;;;;;11.50;76.20;;;;;;5090078;28;19975;-61
2023/11/03 14:00:31;;;;;;;;;;;11.50;76.30;;;;;;5095265;28;19928;-61
2023/11/03 14:03:06;;;;;;;;;;;11.50;76.40;;;;;;5093305;28;19932;-62
2023/11/03 14:05:46;;;;;;;;;;;11.40;76.20;;;;;;5091994;28;22594;-61
2023/11/03 14:08:19;;;;;;;;;;;11.40;76.30;;;;;;5095541;27;20489;-62
2023/11/03 14:10:53;;;;;;;;;;;11.40;76.20;;;;;;5087729;28;20469;-60
2023/11/03 14:13:29;;;;;;;;;;;11.30;76.00;;;;;;5094435;27;20481;-59
2023/11/03 14:16:03;;;;;;;;;;;11.30;75.60;;;;;;5089436;28;20661;-61
2023/11/03 14:18:42;;;;;;;;;;;11.30;75.90;;;;;;5095675;28;19939;-59
2023/11/03 14:21:18;;;;;;;;;;;11.30;75.90;;;;;;5097709;28;21122;-61
2023/11/03 14:23:51;;;;;;;;;;;11.20;76.10;;;;;;5094178;28;19927;-61
2023/11/03 14:26:23;;;;;;;;;;;11.20;76.90;;;;;;5094619;28;19931;-62
2023/11/03 14:28:58;;;;;;;;;;;11.20;77.10;;;;;;5088834;28;20446;-60
2023/11/03 14:31:33;;;;;;;;;;;11.20;76.60;;;;;;5096529;28;20030;-61
2023/11/03 14:34:07;;;;;;;;;;;11.20;76.70;;;;;;5094146;27;19962;-61
2023/11/03 14:36:42;;;;;;;;;;;11.20;76.70;;;;;;5095195;28;19927;-62
2023/11/03 14:39:09;;;;;;;;;;;11.10;76.60;;;;;;5095033;28;19930;-61
2023/11/03 14:41:43;;;;;;;;;;;11.10;76.50;;;;;;5095803;28;19924;-63
2023/11/03 14:44:18;;;;;;;;;;;11.10;76.20;;;;;;5087782;28;20016;-60
2023/11/03 14:46:52;;;;;;;;;;;11.10;76.00;;;;;;5096568;27;19949;-69
2023/11/03 14:49:25;;;;;;;;;;;11.10;76.60;;;;;;5094533;28;19989;-70
2023/11/03 14:51:57;;;;;;;;;;;11.10;76.60;;;;;;5096549;27;20264;-71
2023/11/03 14:54:31;;;;;;;;;;;11.00;76.30;;;;;;5095007;27;19932;-71
2023/11/03 14:57:04;;;;;;;;;;;10.90;76.50;;;;;;5100529;28;19924;-70
2023/11/03 14:59:34;;;;;;;;;;;10.90;76.80;;;;;;5092624;28;19935;-70
2023/11/03 15:02:08;;;;;;;;;;;10.90;77.10;;;;;;5096404;28;20395;-70